sensor_id;sensor_type;location;lat;lon;timestamp;P1;durP1;ratioP1;P2;durP2;ratioP2
31128;SDS011;17777;48.770;8.944;2022-08-02T00:01:27;2.08;;;1.10;;
31128;SDS011;17777;48.770;8.944;2022-08-02T00:03:53;1.85;;;1.20;;
31128;SDS011;17777;48.770;8.944;2022-08-02T00:06:18;3.70;;;1.65;;
31128;SDS011;17777;48.770;8.944;2022-08-02T00:08:44;5.28;;;1.23;;
31128;SDS011;17777;48.770;8.944;2022-08-02T00:11:10;1.25;;;1.02;;
31128;SDS011;17777;48.770;8.944;2022-08-02T00:13:36;1.40;;;1.00;;
31128;SDS011;17777;48.770;8.944;2022-08-02T00:16:02;2.05;;;1.00;;
31128;SDS011;17777;48.770;8.944;2022-08-02T00:18:29;1.95;;;1.30;;
31128;SDS011;17777;48.770;8.944;2022-08-02T00:20:54;2.10;;;1.25;;
31128;SDS011;17777;48.770;8.944;2022-08-02T00:23:20;2.20;;;1.10;;
31128;SDS011;17777;48.770;8.944;2022-08-02T00:25:47;1.00;;;0.90;;
31128;SDS011;17777;48.770;8.944;2022-08-02T00:28:13;4.25;;;1.25;;
31128;SDS011;17777;48.770;8.944;2022-08-02T00:30:38;1.20;;;0.90;;
31128;SDS011;17777;48.770;8.944;2022-08-02T00:33:04;1.08;;;0.75;;
31128;SDS011;17777;48.770;8.944;2022-08-02T00:35:32;1.10;;;0.93;;
31128;SDS011;17777;48.770;8.944;2022-08-02T00:37:59;1.23;;;1.08;;
31128;SDS011;17777;48.770;8.944;2022-08-02T00:40:24;1.30;;;1.00;;
31128;SDS011;17777;48.770;8.944;2022-08-02T00:43:04;3.17;;;1.13;;
31128;SDS011;17777;48.770;8.944;2022-08-02T00:45:31;1.42;;;0.98;;
31128;SDS011;17777;48.770;8.944;2022-08-02T00:47:59;1.50;;;0.90;;
31128;SDS011;17777;48.770;8.944;2022-08-02T00:50:25;1.75;;;1.20;;
31128;SDS011;17777;48.770;8.944;2022-08-02T00:52:51;1.77;;;0.93;;
31128;SDS011;17777;48.770;8.944;2022-08-02T00:55:17;1.40;;;0.90;;
31128;SDS011;17777;48.770;8.944;2022-08-02T00:57:43;1.60;;;1.30;;
31128;SDS011;17777;48.770;8.944;2022-08-02T01:00:09;1.15;;;1.00;;
31128;SDS011;17777;48.770;8.944;2022-08-02T01:02:36;1.58;;;0.98;;
31128;SDS011;17777;48.770;8.944;2022-08-02T01:05:02;1.05;;;0.90;;
31128;SDS011;17777;48.770;8.944;2022-08-02T01:07:28;3.10;;;1.23;;
31128;SDS011;17777;48.770;8.944;2022-08-02T01:09:54;1.05;;;0.93;;
31128;SDS011;17777;48.770;8.944;2022-08-02T01:12:20;1.83;;;1.08;;
31128;SDS011;17777;48.770;8.944;2022-08-02T01:14:47;1.60;;;0.98;;
31128;SDS011;17777;48.770;8.944;2022-08-02T01:26:26;1.42;;;1.00;;
31128;SDS011;17777;48.770;8.944;2022-08-02T01:31:30;1.13;;;0.80;;
31128;SDS011;17777;48.770;8.944;2022-08-02T01:34:11;0.95;;;0.80;;
31128;SDS011;17777;48.770;8.944;2022-08-02T01:36:44;1.52;;;1.00;;
31128;SDS011;17777;48.770;8.944;2022-08-02T01:39:18;2.13;;;1.00;;
31128;SDS011;17777;48.770;8.944;2022-08-02T01:41:49;1.30;;;1.20;;
31128;SDS011;17777;48.770;8.944;2022-08-02T01:44:17;1.77;;;0.93;;
31128;SDS011;17777;48.770;8.944;2022-08-02T01:46:46;1.17;;;0.90;;
31128;SDS011;17777;48.770;8.944;2022-08-02T01:49:14;1.75;;;0.95;;
31128;SDS011;17777;48.770;8.944;2022-08-02T01:51:43;1.20;;;1.10;;
31128;SDS011;17777;48.770;8.944;2022-08-02T01:54:32;1.10;;;0.90;;
31128;SDS011;17777;48.770;8.944;2022-08-02T01:57:00;1.10;;;0.90;;
31128;SDS011;17777;48.770;8.944;2022-08-02T01:59:29;1.35;;;0.90;;
31128;SDS011;17777;48.770;8.944;2022-08-02T02:01:58;1.88;;;0.88;;
31128;SDS011;17777;48.770;8.944;2022-08-02T02:04:25;1.30;;;0.90;;
31128;SDS011;17777;48.770;8.944;2022-08-02T02:06:54;3.33;;;0.90;;
31128;SDS011;17777;48.770;8.944;2022-08-02T02:09:21;2.03;;;0.90;;
31128;SDS011;17777;48.770;8.944;2022-08-02T02:11:53;1.10;;;0.90;;
31128;SDS011;17777;48.770;8.944;2022-08-02T02:14:22;0.80;;;0.80;;
31128;SDS011;17777;48.770;8.944;2022-08-02T02:16:49;1.80;;;1.00;;
31128;SDS011;17777;48.770;8.944;2022-08-02T02:19:15;2.40;;;1.00;;
31128;SDS011;17777;48.770;8.944;2022-08-02T02:21:43;1.23;;;0.95;;
31128;SDS011;17777;48.770;8.944;2022-08-02T02:24:09;0.80;;;0.80;;
31128;SDS011;17777;48.770;8.944;2022-08-02T02:26:36;1.67;;;0.80;;
31128;SDS011;17777;48.770;8.944;2022-08-02T02:29:04;4.13;;;1.13;;
31128;SDS011;17777;48.770;8.944;2022-08-02T02:31:37;0.93;;;0.82;;
31128;SDS011;17777;48.770;8.944;2022-08-02T02:34:10;0.90;;;0.80;;
31128;SDS011;17777;48.770;8.944;2022-08-02T02:36:41;1.13;;;0.93;;
31128;SDS011;17777;48.770;8.944;2022-08-02T02:39:13;3.72;;;1.13;;
31128;SDS011;17777;48.770;8.944;2022-08-02T02:41:42;1.85;;;1.15;;
31128;SDS011;17777;48.770;8.944;2022-08-02T02:44:10;0.90;;;0.90;;
31128;SDS011;17777;48.770;8.944;2022-08-02T02:46:41;1.20;;;0.90;;
31128;SDS011;17777;48.770;8.944;2022-08-02T02:49:09;0.80;;;0.80;;
31128;SDS011;17777;48.770;8.944;2022-08-02T02:51:38;1.85;;;0.77;;
31128;SDS011;17777;48.770;8.944;2022-08-02T02:54:05;1.00;;;0.80;;
31128;SDS011;17777;48.770;8.944;2022-08-02T02:56:36;2.25;;;1.23;;
31128;SDS011;17777;48.770;8.944;2022-08-02T02:59:03;1.70;;;1.00;;
31128;SDS011;17777;48.770;8.944;2022-08-02T03:01:31;1.13;;;0.90;;
31128;SDS011;17777;48.770;8.944;2022-08-02T03:04:02;1.15;;;0.70;;
31128;SDS011;17777;48.770;8.944;2022-08-02T03:06:31;0.93;;;0.73;;
31128;SDS011;17777;48.770;8.944;2022-08-02T03:08:58;2.53;;;1.20;;
31128;SDS011;17777;48.770;8.944;2022-08-02T03:11:24;2.20;;;1.02;;
31128;SDS011;17777;48.770;8.944;2022-08-02T03:14:01;5.15;;;1.02;;
31128;SDS011;17777;48.770;8.944;2022-08-02T03:16:29;0.90;;;0.90;;
31128;SDS011;17777;48.770;8.944;2022-08-02T03:18:55;1.40;;;0.93;;
31128;SDS011;17777;48.770;8.944;2022-08-02T03:21:22;1.13;;;0.80;;
31128;SDS011;17777;48.770;8.944;2022-08-02T03:23:48;1.02;;;0.80;;
31128;SDS011;17777;48.770;8.944;2022-08-02T03:26:15;1.42;;;0.90;;
31128;SDS011;17777;48.770;8.944;2022-08-02T03:28:41;0.90;;;0.90;;
31128;SDS011;17777;48.770;8.944;2022-08-02T03:31:07;1.42;;;1.20;;
31128;SDS011;17777;48.770;8.944;2022-08-02T03:33:33;1.35;;;0.80;;
31128;SDS011;17777;48.770;8.944;2022-08-02T03:36:01;1.52;;;0.80;;
31128;SDS011;17777;48.770;8.944;2022-08-02T03:38:35;1.55;;;0.80;;
31128;SDS011;17777;48.770;8.944;2022-08-02T03:41:02;1.02;;;0.75;;
31128;SDS011;17777;48.770;8.944;2022-08-02T03:43:29;0.73;;;0.73;;
31128;SDS011;17777;48.770;8.944;2022-08-02T03:45:56;0.85;;;0.80;;
31128;SDS011;17777;48.770;8.944;2022-08-02T03:48:22;1.65;;;0.90;;
31128;SDS011;17777;48.770;8.944;2022-08-02T03:50:51;1.58;;;0.73;;
31128;SDS011;17777;48.770;8.944;2022-08-02T03:53:17;0.85;;;0.85;;
31128;SDS011;17777;48.770;8.944;2022-08-02T03:55:44;1.65;;;1.00;;
31128;SDS011;17777;48.770;8.944;2022-08-02T03:58:18;1.35;;;0.75;;
31128;SDS011;17777;48.770;8.944;2022-08-02T04:00:46;0.80;;;0.73;;
31128;SDS011;17777;48.770;8.944;2022-08-02T04:03:12;1.50;;;0.80;;
31128;SDS011;17777;48.770;8.944;2022-08-02T04:05:39;1.25;;;0.80;;
31128;SDS011;17777;48.770;8.944;2022-08-02T04:08:05;1.25;;;0.75;;
31128;SDS011;17777;48.770;8.944;2022-08-02T04:10:31;2.65;;;0.80;;
31128;SDS011;17777;48.770;8.944;2022-08-02T04:13:18;0.95;;;0.80;;
31128;SDS011;17777;48.770;8.944;2022-08-02T04:15:45;5.80;;;0.70;;
31128;SDS011;17777;48.770;8.944;2022-08-02T04:18:14;1.80;;;0.73;;
31128;SDS011;17777;48.770;8.944;2022-08-02T04:20:41;1.55;;;0.88;;
31128;SDS011;17777;48.770;8.944;2022-08-02T04:23:08;2.03;;;0.90;;
31128;SDS011;17777;48.770;8.944;2022-08-02T04:25:37;1.20;;;0.80;;
31128;SDS011;17777;48.770;8.944;2022-08-02T04:28:04;1.92;;;0.70;;
31128;SDS011;17777;48.770;8.944;2022-08-02T04:30:31;0.90;;;0.80;;
31128;SDS011;17777;48.770;8.944;2022-08-02T04:32:58;0.70;;;0.70;;
31128;SDS011;17777;48.770;8.944;2022-08-02T04:35:24;3.13;;;0.85;;
31128;SDS011;17777;48.770;8.944;2022-08-02T04:37:50;0.85;;;0.70;;
31128;SDS011;17777;48.770;8.944;2022-08-02T04:40:17;2.72;;;0.80;;
31128;SDS011;17777;48.770;8.944;2022-08-02T04:42:43;1.10;;;0.98;;
31128;SDS011;17777;48.770;8.944;2022-08-02T04:45:08;1.63;;;0.95;;
31128;SDS011;17777;48.770;8.944;2022-08-02T04:47:35;1.10;;;1.00;;
31128;SDS011;17777;48.770;8.944;2022-08-02T04:50:02;0.80;;;0.80;;
31128;SDS011;17777;48.770;8.944;2022-08-02T04:52:28;1.63;;;0.90;;
31128;SDS011;17777;48.770;8.944;2022-08-02T04:54:54;2.25;;;0.80;;
31128;SDS011;17777;48.770;8.944;2022-08-02T04:57:20;0.73;;;0.68;;
31128;SDS011;17777;48.770;8.944;2022-08-02T05:00:05;0.70;;;0.70;;
31128;SDS011;17777;48.770;8.944;2022-08-02T05:02:33;0.80;;;0.80;;
31128;SDS011;17777;48.770;8.944;2022-08-02T05:05:00;0.60;;;0.60;;
31128;SDS011;17777;48.770;8.944;2022-08-02T05:07:26;1.30;;;0.80;;
31128;SDS011;17777;48.770;8.944;2022-08-02T05:09:52;2.53;;;0.85;;
31128;SDS011;17777;48.770;8.944;2022-08-02T05:12:17;0.90;;;0.75;;
31128;SDS011;17777;48.770;8.944;2022-08-02T05:14:46;1.45;;;0.70;;
31128;SDS011;17777;48.770;8.944;2022-08-02T05:17:13;1.00;;;0.88;;
31128;SDS011;17777;48.770;8.944;2022-08-02T05:19:39;2.25;;;0.95;;
31128;SDS011;17777;48.770;8.944;2022-08-02T05:22:06;1.30;;;1.00;;
31128;SDS011;17777;48.770;8.944;2022-08-02T05:24:32;2.60;;;1.23;;
31128;SDS011;17777;48.770;8.944;2022-08-02T05:26:57;1.63;;;1.05;;
31128;SDS011;17777;48.770;8.944;2022-08-02T05:29:23;2.05;;;0.98;;
31128;SDS011;17777;48.770;8.944;2022-08-02T05:31:49;1.67;;;0.98;;
31128;SDS011;17777;48.770;8.944;2022-08-02T05:34:15;3.38;;;0.80;;
31128;SDS011;17777;48.770;8.944;2022-08-02T05:36:40;0.95;;;0.90;;
31128;SDS011;17777;48.770;8.944;2022-08-02T05:39:06;1.35;;;0.90;;
31128;SDS011;17777;48.770;8.944;2022-08-02T05:41:33;1.75;;;1.10;;
31128;SDS011;17777;48.770;8.944;2022-08-02T05:43:59;2.83;;;1.08;;
31128;SDS011;17777;48.770;8.944;2022-08-02T05:46:25;4.47;;;1.10;;
31128;SDS011;17777;48.770;8.944;2022-08-02T05:48:51;3.50;;;1.15;;
31128;SDS011;17777;48.770;8.944;2022-08-02T05:51:30;3.85;;;0.82;;
31128;SDS011;17777;48.770;8.944;2022-08-02T05:57:36;2.50;;;1.20;;
31128;SDS011;17777;48.770;8.944;2022-08-02T06:05:35;3.03;;;1.30;;
31128;SDS011;17777;48.770;8.944;2022-08-02T06:08:05;3.38;;;1.20;;
31128;SDS011;17777;48.770;8.944;2022-08-02T06:10:35;1.95;;;1.20;;
31128;SDS011;17777;48.770;8.944;2022-08-02T06:13:07;4.07;;;1.20;;
31128;SDS011;17777;48.770;8.944;2022-08-02T06:15:36;4.70;;;1.50;;
31128;SDS011;17777;48.770;8.944;2022-08-02T06:18:03;3.63;;;1.70;;
31128;SDS011;17777;48.770;8.944;2022-08-02T06:20:31;2.40;;;1.20;;
31128;SDS011;17777;48.770;8.944;2022-08-02T06:23:06;2.35;;;1.27;;
31128;SDS011;17777;48.770;8.944;2022-08-02T06:25:34;3.55;;;1.10;;
31128;SDS011;17777;48.770;8.944;2022-08-02T06:28:03;1.58;;;1.15;;
31128;SDS011;17777;48.770;8.944;2022-08-02T06:30:30;1.20;;;1.10;;
31128;SDS011;17777;48.770;8.944;2022-08-02T06:32:57;1.13;;;1.02;;
31128;SDS011;17777;48.770;8.944;2022-08-02T06:35:44;1.13;;;1.02;;
31128;SDS011;17777;48.770;8.944;2022-08-02T06:38:18;2.53;;;1.35;;
31128;SDS011;17777;48.770;8.944;2022-08-02T06:41:08;0.85;;;0.82;;
31128;SDS011;17777;48.770;8.944;2022-08-02T06:46:27;2.20;;;1.40;;
31128;SDS011;17777;48.770;8.944;2022-08-02T06:48:53;1.75;;;1.00;;
31128;SDS011;17777;48.770;8.944;2022-08-02T06:51:20;1.38;;;1.08;;
31128;SDS011;17777;48.770;8.944;2022-08-02T06:53:47;2.10;;;1.27;;
31128;SDS011;17777;48.770;8.944;2022-08-02T06:56:13;5.15;;;1.38;;
31128;SDS011;17777;48.770;8.944;2022-08-02T06:58:38;1.45;;;1.35;;
31128;SDS011;17777;48.770;8.944;2022-08-02T07:01:05;1.83;;;1.20;;
31128;SDS011;17777;48.770;8.944;2022-08-02T07:03:32;2.08;;;1.27;;
31128;SDS011;17777;48.770;8.944;2022-08-02T07:05:58;1.73;;;1.25;;
31128;SDS011;17777;48.770;8.944;2022-08-02T07:08:24;1.92;;;1.30;;
31128;SDS011;17777;48.770;8.944;2022-08-02T07:10:52;2.75;;;1.98;;
31128;SDS011;17777;48.770;8.944;2022-08-02T07:13:20;1.80;;;1.70;;
31128;SDS011;17777;48.770;8.944;2022-08-02T07:15:45;2.20;;;1.55;;
31128;SDS011;17777;48.770;8.944;2022-08-02T07:18:11;3.67;;;1.75;;
31128;SDS011;17777;48.770;8.944;2022-08-02T07:20:39;2.40;;;1.27;;
31128;SDS011;17777;48.770;8.944;2022-08-02T07:23:06;2.33;;;1.60;;
31128;SDS011;17777;48.770;8.944;2022-08-02T07:25:32;2.33;;;1.67;;
31128;SDS011;17777;48.770;8.944;2022-08-02T07:27:57;1.85;;;1.60;;
31128;SDS011;17777;48.770;8.944;2022-08-02T07:30:23;2.03;;;1.17;;
31128;SDS011;17777;48.770;8.944;2022-08-02T07:32:49;3.42;;;1.40;;
31128;SDS011;17777;48.770;8.944;2022-08-02T07:35:15;2.00;;;1.33;;
31128;SDS011;17777;48.770;8.944;2022-08-02T07:37:40;1.95;;;1.15;;
31128;SDS011;17777;48.770;8.944;2022-08-02T07:40:09;1.42;;;1.17;;
31128;SDS011;17777;48.770;8.944;2022-08-02T07:42:36;1.80;;;1.38;;
31128;SDS011;17777;48.770;8.944;2022-08-02T07:45:02;1.13;;;1.02;;
31128;SDS011;17777;48.770;8.944;2022-08-02T07:47:29;2.17;;;1.50;;
31128;SDS011;17777;48.770;8.944;2022-08-02T07:49:54;2.97;;;1.15;;
31128;SDS011;17777;48.770;8.944;2022-08-02T07:52:20;2.00;;;1.38;;
31128;SDS011;17777;48.770;8.944;2022-08-02T07:54:46;4.15;;;1.50;;
31128;SDS011;17777;48.770;8.944;2022-08-02T07:57:12;1.60;;;1.50;;
31128;SDS011;17777;48.770;8.944;2022-08-02T07:59:37;1.98;;;1.38;;
31128;SDS011;17777;48.770;8.944;2022-08-02T08:02:03;4.15;;;1.63;;
31128;SDS011;17777;48.770;8.944;2022-08-02T08:04:29;1.33;;;1.17;;
31128;SDS011;17777;48.770;8.944;2022-08-02T08:06:55;1.35;;;1.20;;
31128;SDS011;17777;48.770;8.944;2022-08-02T08:09:21;1.85;;;1.05;;
31128;SDS011;17777;48.770;8.944;2022-08-02T08:11:47;1.30;;;1.20;;
31128;SDS011;17777;48.770;8.944;2022-08-02T08:14:12;1.88;;;1.65;;
31128;SDS011;17777;48.770;8.944;2022-08-02T08:16:38;2.20;;;1.50;;
31128;SDS011;17777;48.770;8.944;2022-08-02T08:19:04;1.58;;;1.48;;
31128;SDS011;17777;48.770;8.944;2022-08-02T08:21:30;2.05;;;1.80;;
31128;SDS011;17777;48.770;8.944;2022-08-02T08:23:56;1.40;;;1.30;;
31128;SDS011;17777;48.770;8.944;2022-08-02T08:26:22;1.90;;;1.70;;
31128;SDS011;17777;48.770;8.944;2022-08-02T08:28:50;1.75;;;1.17;;
31128;SDS011;17777;48.770;8.944;2022-08-02T08:31:16;1.90;;;1.60;;
31128;SDS011;17777;48.770;8.944;2022-08-02T08:33:42;2.50;;;1.90;;
31128;SDS011;17777;48.770;8.944;2022-08-02T08:36:08;2.10;;;1.55;;
31128;SDS011;17777;48.770;8.944;2022-08-02T08:38:34;2.70;;;1.75;;
31128;SDS011;17777;48.770;8.944;2022-08-02T08:40:59;1.63;;;1.48;;
31128;SDS011;17777;48.770;8.944;2022-08-02T08:43:25;1.27;;;1.17;;
31128;SDS011;17777;48.770;8.944;2022-08-02T08:45:51;1.80;;;1.70;;
31128;SDS011;17777;48.770;8.944;2022-08-02T08:48:17;3.45;;;1.75;;
31128;SDS011;17777;48.770;8.944;2022-08-02T08:50:48;1.70;;;1.52;;
31128;SDS011;17777;48.770;8.944;2022-08-02T08:53:19;2.00;;;1.60;;
31128;SDS011;17777;48.770;8.944;2022-08-02T08:55:48;1.60;;;1.50;;
31128;SDS011;17777;48.770;8.944;2022-08-02T08:58:20;1.60;;;1.50;;
31128;SDS011;17777;48.770;8.944;2022-08-02T09:00:46;1.70;;;1.60;;
31128;SDS011;17777;48.770;8.944;2022-08-02T09:03:17;1.67;;;1.58;;
31128;SDS011;17777;48.770;8.944;2022-08-02T09:05:54;1.90;;;1.75;;
31128;SDS011;17777;48.770;8.944;2022-08-02T09:08:22;1.88;;;1.77;;
31128;SDS011;17777;48.770;8.944;2022-08-02T09:10:49;1.50;;;1.40;;
31128;SDS011;17777;48.770;8.944;2022-08-02T09:13:17;2.83;;;1.95;;
31128;SDS011;17777;48.770;8.944;2022-08-02T09:15:53;1.50;;;1.40;;
31128;SDS011;17777;48.770;8.944;2022-08-02T09:18:30;1.88;;;1.77;;
31128;SDS011;17777;48.770;8.944;2022-08-02T09:21:05;2.20;;;1.38;;
31128;SDS011;17777;48.770;8.944;2022-08-02T09:23:36;1.40;;;1.30;;
31128;SDS011;17777;48.770;8.944;2022-08-02T09:26:15;2.40;;;1.60;;
31128;SDS011;17777;48.770;8.944;2022-08-02T09:28:44;1.70;;;1.60;;
31128;SDS011;17777;48.770;8.944;2022-08-02T09:31:15;1.50;;;1.40;;
31128;SDS011;17777;48.770;8.944;2022-08-02T09:33:49;1.38;;;1.27;;
31128;SDS011;17777;48.770;8.944;2022-08-02T09:36:21;2.35;;;1.63;;
31128;SDS011;17777;48.770;8.944;2022-08-02T09:41:30;1.88;;;1.77;;
31128;SDS011;17777;48.770;8.944;2022-08-02T09:43:58;1.75;;;1.65;;
31128;SDS011;17777;48.770;8.944;2022-08-02T09:46:27;2.15;;;1.70;;
31128;SDS011;17777;48.770;8.944;2022-08-02T09:49:03;3.28;;;1.90;;
31128;SDS011;17777;48.770;8.944;2022-08-02T09:51:34;1.90;;;1.67;;
31128;SDS011;17777;48.770;8.944;2022-08-02T09:54:15;3.70;;;1.80;;
31128;SDS011;17777;48.770;8.944;2022-08-02T09:56:48;3.33;;;1.83;;
31128;SDS011;17777;48.770;8.944;2022-08-02T09:59:17;1.85;;;1.60;;
31128;SDS011;17777;48.770;8.944;2022-08-02T10:01:48;1.48;;;1.38;;
31128;SDS011;17777;48.770;8.944;2022-08-02T10:04:14;2.97;;;1.20;;
31128;SDS011;17777;48.770;8.944;2022-08-02T10:06:44;1.35;;;1.20;;
31128;SDS011;17777;48.770;8.944;2022-08-02T10:09:10;1.70;;;1.60;;
31128;SDS011;17777;48.770;8.944;2022-08-02T10:11:37;1.50;;;1.40;;
31128;SDS011;17777;48.770;8.944;2022-08-02T10:14:05;1.67;;;1.58;;
31128;SDS011;17777;48.770;8.944;2022-08-02T10:16:33;1.77;;;1.67;;
31128;SDS011;17777;48.770;8.944;2022-08-02T10:19:02;2.47;;;1.45;;
31128;SDS011;17777;48.770;8.944;2022-08-02T10:24:37;3.13;;;1.80;;
31128;SDS011;17777;48.770;8.944;2022-08-02T10:27:05;1.70;;;1.45;;
31128;SDS011;17777;48.770;8.944;2022-08-02T10:29:39;1.77;;;1.67;;
31128;SDS011;17777;48.770;8.944;2022-08-02T10:32:12;1.25;;;1.20;;
31128;SDS011;17777;48.770;8.944;2022-08-02T10:37:49;2.08;;;1.42;;
31128;SDS011;17777;48.770;8.944;2022-08-02T10:40:20;1.40;;;1.27;;
31128;SDS011;17777;48.770;8.944;2022-08-02T10:42:53;1.50;;;1.40;;
31128;SDS011;17777;48.770;8.944;2022-08-02T10:45:25;4.88;;;1.77;;
31128;SDS011;17777;48.770;8.944;2022-08-02T10:53:28;2.17;;;1.35;;
31128;SDS011;17777;48.770;8.944;2022-08-02T10:55:56;2.00;;;1.33;;
31128;SDS011;17777;48.770;8.944;2022-08-02T10:58:28;1.40;;;1.30;;
31128;SDS011;17777;48.770;8.944;2022-08-02T11:00:56;1.35;;;1.25;;
31128;SDS011;17777;48.770;8.944;2022-08-02T11:06:00;2.08;;;1.50;;
31128;SDS011;17777;48.770;8.944;2022-08-02T11:08:37;1.20;;;1.10;;
31128;SDS011;17777;48.770;8.944;2022-08-02T11:14:03;1.55;;;1.45;;
31128;SDS011;17777;48.770;8.944;2022-08-02T11:19:21;1.40;;;1.30;;
31128;SDS011;17777;48.770;8.944;2022-08-02T11:22:02;2.15;;;1.20;;
31128;SDS011;17777;48.770;8.944;2022-08-02T11:24:43;1.45;;;1.20;;
31128;SDS011;17777;48.770;8.944;2022-08-02T11:27:18;1.40;;;1.30;;
31128;SDS011;17777;48.770;8.944;2022-08-02T11:29:45;1.40;;;1.30;;
31128;SDS011;17777;48.770;8.944;2022-08-02T11:32:21;1.63;;;1.50;;
31128;SDS011;17777;48.770;8.944;2022-08-02T11:34:49;1.20;;;1.10;;
31128;SDS011;17777;48.770;8.944;2022-08-02T11:37:31;1.38;;;1.27;;
31128;SDS011;17777;48.770;8.944;2022-08-02T11:40:03;1.60;;;1.50;;
31128;SDS011;17777;48.770;8.944;2022-08-02T11:42:32;1.40;;;1.30;;
31128;SDS011;17777;48.770;8.944;2022-08-02T11:44:59;1.67;;;1.33;;
31128;SDS011;17777;48.770;8.944;2022-08-02T11:47:26;2.15;;;1.27;;
31128;SDS011;17777;48.770;8.944;2022-08-02T11:50:02;1.40;;;1.27;;
31128;SDS011;17777;48.770;8.944;2022-08-02T11:52:32;2.38;;;1.38;;
31128;SDS011;17777;48.770;8.944;2022-08-02T11:55:00;1.65;;;1.00;;
31128;SDS011;17777;48.770;8.944;2022-08-02T11:57:26;1.70;;;1.23;;
31128;SDS011;17777;48.770;8.944;2022-08-02T11:59:53;2.33;;;1.20;;
31128;SDS011;17777;48.770;8.944;2022-08-02T12:02:25;1.20;;;1.10;;
31128;SDS011;17777;48.770;8.944;2022-08-02T12:04:53;2.85;;;1.30;;
31128;SDS011;17777;48.770;8.944;2022-08-02T12:07:31;1.50;;;1.25;;
31128;SDS011;17777;48.770;8.944;2022-08-02T12:10:01;1.48;;;1.38;;
31128;SDS011;17777;48.770;8.944;2022-08-02T12:12:46;1.35;;;1.15;;
31128;SDS011;17777;48.770;8.944;2022-08-02T12:18:14;1.33;;;1.23;;
31128;SDS011;17777;48.770;8.944;2022-08-02T12:21:02;1.30;;;1.10;;
31128;SDS011;17777;48.770;8.944;2022-08-02T12:23:45;1.20;;;1.20;;
31128;SDS011;17777;48.770;8.944;2022-08-02T12:26:10;1.63;;;1.45;;
31128;SDS011;17777;48.770;8.944;2022-08-02T12:28:38;1.88;;;1.13;;
31128;SDS011;17777;48.770;8.944;2022-08-02T12:31:08;1.20;;;1.10;;
31128;SDS011;17777;48.770;8.944;2022-08-02T12:33:46;1.10;;;1.00;;
31128;SDS011;17777;48.770;8.944;2022-08-02T12:36:21;2.25;;;1.30;;
31128;SDS011;17777;48.770;8.944;2022-08-02T12:38:55;1.20;;;1.10;;
31128;SDS011;17777;48.770;8.944;2022-08-02T12:41:23;1.23;;;1.13;;
31128;SDS011;17777;48.770;8.944;2022-08-02T12:43:51;1.50;;;1.38;;
31128;SDS011;17777;48.770;8.944;2022-08-02T12:46:19;1.40;;;1.30;;
31128;SDS011;17777;48.770;8.944;2022-08-02T12:48:57;1.17;;;1.08;;
31128;SDS011;17777;48.770;8.944;2022-08-02T12:51:27;1.42;;;1.30;;
31128;SDS011;17777;48.770;8.944;2022-08-02T12:54:12;1.02;;;1.00;;
31128;SDS011;17777;48.770;8.944;2022-08-02T12:56:45;1.35;;;1.20;;
31128;SDS011;17777;48.770;8.944;2022-08-02T12:59:11;1.23;;;1.13;;
31128;SDS011;17777;48.770;8.944;2022-08-02T13:01:39;1.40;;;1.30;;
31128;SDS011;17777;48.770;8.944;2022-08-02T13:04:04;1.85;;;0.90;;
31128;SDS011;17777;48.770;8.944;2022-08-02T13:06:31;1.00;;;0.90;;
31128;SDS011;17777;48.770;8.944;2022-08-02T13:08:57;1.00;;;0.90;;
31128;SDS011;17777;48.770;8.944;2022-08-02T13:11:24;0.93;;;0.93;;
31128;SDS011;17777;48.770;8.944;2022-08-02T13:13:50;1.20;;;1.10;;
31128;SDS011;17777;48.770;8.944;2022-08-02T13:16:16;0.88;;;0.88;;
31128;SDS011;17777;48.770;8.944;2022-08-02T13:18:42;1.60;;;1.15;;
31128;SDS011;17777;48.770;8.944;2022-08-02T13:21:09;1.15;;;1.08;;
31128;SDS011;17777;48.770;8.944;2022-08-02T13:23:36;1.20;;;1.10;;
31128;SDS011;17777;48.770;8.944;2022-08-02T13:26:03;1.20;;;1.10;;
31128;SDS011;17777;48.770;8.944;2022-08-02T13:28:29;1.45;;;1.20;;
31128;SDS011;17777;48.770;8.944;2022-08-02T13:30:55;1.40;;;1.30;;
31128;SDS011;17777;48.770;8.944;2022-08-02T13:33:21;1.08;;;1.00;;
31128;SDS011;17777;48.770;8.944;2022-08-02T13:35:47;1.20;;;1.10;;
31128;SDS011;17777;48.770;8.944;2022-08-02T13:38:14;1.42;;;1.27;;
31128;SDS011;17777;48.770;8.944;2022-08-02T13:40:40;11.70;;;1.50;;
31128;SDS011;17777;48.770;8.944;2022-08-02T13:43:24;1.58;;;0.90;;
31128;SDS011;17777;48.770;8.944;2022-08-02T13:45:51;2.35;;;1.30;;
31128;SDS011;17777;48.770;8.944;2022-08-02T13:48:17;0.93;;;0.93;;
31128;SDS011;17777;48.770;8.944;2022-08-02T13:50:43;0.88;;;0.88;;
31128;SDS011;17777;48.770;8.944;2022-08-02T13:53:08;1.27;;;1.00;;
31128;SDS011;17777;48.770;8.944;2022-08-02T13:55:34;2.78;;;1.20;;
31128;SDS011;17777;48.770;8.944;2022-08-02T13:58:00;3.10;;;0.90;;
31128;SDS011;17777;48.770;8.944;2022-08-02T14:00:26;0.98;;;0.98;;
31128;SDS011;17777;48.770;8.944;2022-08-02T14:02:52;0.77;;;0.77;;
31128;SDS011;17777;48.770;8.944;2022-08-02T14:05:18;1.70;;;1.08;;
31128;SDS011;17777;48.770;8.944;2022-08-02T14:07:43;1.10;;;1.00;;
31128;SDS011;17777;48.770;8.944;2022-08-02T14:10:09;0.80;;;0.80;;
31128;SDS011;17777;48.770;8.944;2022-08-02T14:12:35;3.08;;;1.00;;
31128;SDS011;17777;48.770;8.944;2022-08-02T14:15:01;0.98;;;0.95;;
31128;SDS011;17777;48.770;8.944;2022-08-02T14:17:27;1.00;;;0.90;;
31128;SDS011;17777;48.770;8.944;2022-08-02T14:19:53;1.00;;;0.98;;
31128;SDS011;17777;48.770;8.944;2022-08-02T14:22:18;2.70;;;1.10;;
31128;SDS011;17777;48.770;8.944;2022-08-02T14:24:44;1.00;;;1.00;;
31128;SDS011;17777;48.770;8.944;2022-08-02T14:27:10;1.27;;;0.88;;
31128;SDS011;17777;48.770;8.944;2022-08-02T14:29:36;3.53;;;0.90;;
31128;SDS011;17777;48.770;8.944;2022-08-02T14:32:02;0.90;;;0.90;;
31128;SDS011;17777;48.770;8.944;2022-08-02T14:34:28;0.90;;;0.90;;
31128;SDS011;17777;48.770;8.944;2022-08-02T14:36:54;1.60;;;0.77;;
31128;SDS011;17777;48.770;8.944;2022-08-02T14:39:20;1.00;;;1.00;;
31128;SDS011;17777;48.770;8.944;2022-08-02T14:41:46;1.38;;;0.90;;
31128;SDS011;17777;48.770;8.944;2022-08-02T14:44:12;0.80;;;0.80;;
31128;SDS011;17777;48.770;8.944;2022-08-02T14:46:38;0.98;;;0.90;;
31128;SDS011;17777;48.770;8.944;2022-08-02T14:49:05;1.88;;;0.80;;
31128;SDS011;17777;48.770;8.944;2022-08-02T14:51:34;1.08;;;0.98;;
31128;SDS011;17777;48.770;8.944;2022-08-02T14:54:02;0.90;;;0.90;;
31128;SDS011;17777;48.770;8.944;2022-08-02T14:56:30;1.58;;;0.93;;
31128;SDS011;17777;48.770;8.944;2022-08-02T14:58:56;0.93;;;0.90;;
31128;SDS011;17777;48.770;8.944;2022-08-02T15:01:21;1.15;;;1.00;;
31128;SDS011;17777;48.770;8.944;2022-08-02T15:03:47;1.15;;;0.90;;
31128;SDS011;17777;48.770;8.944;2022-08-02T15:06:13;3.15;;;0.75;;
31128;SDS011;17777;48.770;8.944;2022-08-02T15:08:39;0.88;;;0.88;;
31128;SDS011;17777;48.770;8.944;2022-08-02T15:11:05;0.88;;;0.88;;
31128;SDS011;17777;48.770;8.944;2022-08-02T15:13:31;0.93;;;0.93;;
31128;SDS011;17777;48.770;8.944;2022-08-02T15:15:57;0.80;;;0.80;;
31128;SDS011;17777;48.770;8.944;2022-08-02T15:18:22;2.88;;;0.80;;
31128;SDS011;17777;48.770;8.944;2022-08-02T15:20:48;1.15;;;0.90;;
31128;SDS011;17777;48.770;8.944;2022-08-02T15:23:14;3.30;;;0.90;;
31128;SDS011;17777;48.770;8.944;2022-08-02T15:25:40;1.27;;;0.82;;
31128;SDS011;17777;48.770;8.944;2022-08-02T15:28:07;1.17;;;0.80;;
31128;SDS011;17777;48.770;8.944;2022-08-02T15:30:33;0.75;;;0.75;;
31128;SDS011;17777;48.770;8.944;2022-08-02T15:33:01;1.10;;;1.00;;
31128;SDS011;17777;48.770;8.944;2022-08-02T15:35:28;0.73;;;0.73;;
31128;SDS011;17777;48.770;8.944;2022-08-02T15:37:54;2.72;;;0.90;;
31128;SDS011;17777;48.770;8.944;2022-08-02T15:40:20;1.17;;;0.90;;
31128;SDS011;17777;48.770;8.944;2022-08-02T15:42:47;1.08;;;0.80;;
31128;SDS011;17777;48.770;8.944;2022-08-02T15:45:13;2.67;;;0.90;;